| time (UTC) | temp F | wind direction | speed MPH | gust MPH | rain 1hr in | rain 24hr in | rain mn in | humidity % | barometer mb |
| 20260510115006 | 53 | 53 | 11.0 | 18.0 | 0.00 | 0.00 | 0.00 | 69 | 1017.3 |
| 20260510114003 | 53 | 81 | 9.0 | 16.0 | 0.00 | 0.00 | 0.00 | 70 | 1017.3 |
| 20260510113005 | 53 | 74 | 8.0 | 15.0 | 0.00 | 0.00 | 0.00 | 71 | 1017.4 |
| 20260510112006 | 52 | 67 | 10.0 | 20.0 | 0.00 | 0.00 | 0.00 | 71 | 1017.6 |
| 20260510111007 | 52 | 60 | 9.0 | 17.0 | 0.00 | 0.00 | 0.00 | 71 | 1017.7 |
| 20260510110005 | 52 | 61 | 9.0 | 21.0 | 0.00 | 0.00 | 0.00 | 72 | 1017.7 |
| 20260510105003 | 52 | 67 | 9.0 | 19.0 | 0.00 | 0.00 | 0.00 | 72 | 1017.8 |
| 20260510104004 | 52 | 58 | 9.0 | 15.0 | 0.00 | 0.00 | 0.00 | 72 | 1017.8 |
| 20260510103213 | 52 | 30 | 10.0 | 18.0 | 0.00 | 0.00 | 0.00 | 72 | 1017.8 |
| 20260510102005 | 52 | 43 | 9.0 | 15.0 | 0.00 | 0.00 | 0.00 | 71 | 1018.0 |
| 20260510101007 | 52 | 44 | 10.0 | 18.0 | 0.00 | 0.00 | 0.00 | 70 | 1017.9 |
| 20260510100005 | 53 | 41 | 7.0 | 15.0 | 0.00 | 0.00 | 0.00 | 71 | 1017.8 |
| 20260510095217 | 53 | 59 | 8.0 | 17.0 | 0.00 | 0.00 | 0.00 | 71 | 1017.8 |
| 20260510094005 | 53 | 58 | 8.0 | 15.0 | 0.00 | 0.00 | 0.00 | 72 | 1018.0 |
| 20260510093214 | 53 | 39 | 7.0 | 13.0 | 0.00 | 0.00 | 0.00 | 71 | 1018.0 |
| 20260510092215 | 53 | 62 | 9.0 | 18.0 | 0.00 | 0.00 | 0.00 | 70 | 1018.0 |
| 20260510091008 | 53 | 57 | 9.0 | 20.0 | 0.00 | 0.00 | 0.00 | 70 | 1018.0 |
| 20260510090217 | 53 | 64 | 9.0 | 20.0 | 0.00 | 0.00 | 0.00 | 71 | 1018.1 |
| 20260510085005 | 53 | 43 | 10.0 | 17.0 | 0.00 | 0.00 | 0.00 | 72 | 1018.0 |
| 20260510084006 | 53 | 71 | 9.0 | 19.0 | 0.00 | 0.00 | 0.00 | 73 | 1017.9 |
| 20260510083005 | 53 | 76 | 9.0 | 17.0 | 0.00 | 0.00 | 0.00 | 74 | 1018.0 |
| 20260510082216 | 52 | 56 | 9.0 | 17.0 | 0.00 | 0.00 | 0.00 | 74 | 1017.9 |
| 20260510081005 | 53 | 86 | 9.0 | 16.0 | 0.00 | 0.00 | 0.00 | 76 | 1017.9 |
| 20260510080004 | 52 | 87 | 10.0 | 21.0 | 0.00 | 0.00 | 0.00 | 75 | 1017.9 |
| 20260510075005 | 52 | 55 | 9.0 | 19.0 | 0.00 | 0.00 | 0.00 | 76 | 1018.0 |
| 20260510074219 | 52 | 57 | 9.0 | 19.0 | 0.00 | 0.00 | 0.00 | 76 | 1017.9 |
| 20260510073004 | 52 | 57 | 10.0 | 17.0 | 0.00 | 0.00 | 0.00 | 77 | 1018.2 |
| 20260510072003 | 52 | 81 | 8.0 | 15.0 | 0.00 | 0.00 | 0.00 | 79 | 1018.0 |
| 20260510071003 | 52 | 79 | 8.0 | 15.0 | 0.00 | 0.00 | 0.00 | 81 | 1018.1 |
| 20260510070005 | 51 | 59 | 6.0 | 13.0 | 0.00 | 0.00 | 0.00 | 83 | 1018.1 |
| 20260510065003 | 51 | 69 | 7.0 | 15.0 | 0.00 | 0.00 | 0.00 | 83 | 1018.1 |
| 20260510064005 | 52 | 70 | 8.0 | 15.0 | 0.00 | 0.00 | 0.00 | 82 | 1018.0 |
| 20260510063005 | 53 | 62 | 6.0 | 14.0 | 0.00 | 0.00 | 0.00 | 84 | 1017.8 |
| 20260510062005 | 52 | 82 | 6.0 | 11.0 | 0.00 | 0.00 | 0.00 | 89 | 1017.7 |
| 20260510061005 | 51 | 55 | 6.0 | 11.0 | 0.00 | 0.00 | 0.00 | 91 | 1017.7 |
| 20260510060003 | 49 | 56 | 6.0 | 15.0 | 0.00 | 0.00 | 0.00 | 91 | 1017.7 |
| 20260510055006 | 49 | 72 | 4.0 | 11.0 | 0.00 | 0.00 | 0.00 | 92 | 1017.6 |
| 20260510054005 | 49 | 55 | 6.0 | 11.0 | 0.00 | 0.00 | 0.00 | 93 | 1017.5 |
| 20260510053003 | 49 | 57 | 6.0 | 11.0 | 0.00 | 0.00 | 0.00 | 94 | 1017.6 |
| 20260510052218 | 48 | 65 | 6.0 | 14.0 | 0.00 | 0.00 | 0.00 | 95 | 1017.6 |
| 20260510051005 | 48 | 47 | 4.0 | 9.0 | 0.00 | 0.00 | 0.00 | 96 | 1017.6 |
| 20260510050005 | 48 | 50 | 6.0 | 11.0 | 0.00 | 0.00 | 0.00 | 96 | 1017.8 |
| 20260510045003 | 47 | 50 | 4.0 | 10.0 | 0.00 | 0.00 | 0.00 | 97 | 1017.8 |
| 20260510044003 | 47 | 51 | 5.0 | 9.0 | 0.00 | 0.00 | 0.00 | 97 | 1017.9 |
| 20260510043008 | 47 | 50 | 5.0 | 10.0 | 0.00 | 0.00 | 0.00 | 98 | 1018.0 |
| 20260510042005 | 47 | 38 | 6.0 | 11.0 | 0.00 | 0.00 | 0.00 | 98 | 1018.0 |
| 20260510041005 | 47 | 117 | 6.0 | 10.0 | 0.00 | 0.00 | 0.00 | 99 | 1018.1 |
| 20260510040005 | 47 | 47 | 6.0 | 10.0 | 0.00 | 0.00 | 0.00 | 99 | 1017.9 |
| 20260510035005 | 47 | 47 | 5.0 | 11.0 | 0.00 | 0.00 | 0.00 | 99 | 1018.0 |
| 20260510034005 | 47 | 43 | 4.0 | 10.0 | 0.00 | 0.00 | 0.00 | 99 | 1018.1 |
| 20260510033003 | 48 | 40 | 7.0 | 13.0 | 0.00 | 0.00 | 0.00 | 99 | 1018.1 |
| 20260510032005 | 48 | 56 | 7.0 | 12.0 | 0.00 | 0.00 | 0.00 | 99 | 1018.1 |
| 20260510031003 | 48 | 42 | 8.0 | 13.0 | 0.00 | 0.00 | 0.00 | 99 | 1018.2 |
| 20260510030004 | 48 | 50 | 8.0 | 14.0 | 0.00 | 0.00 | 0.00 | 99 | 1018.3 |
| 20260510025005 | 48 | 38 | 7.0 | 13.0 | 0.00 | 0.00 | 0.00 | 99 | 1018.4 |
| 20260510024003 | 47 | 45 | 5.0 | 10.0 | 0.00 | 0.00 | 0.00 | 99 | 1018.5 |
| 20260510023213 | 47 | 61 | 6.0 | 10.0 | 0.00 | 0.00 | 0.00 | 99 | 1018.6 |
| 20260510022003 | 48 | 41 | 5.0 | 11.0 | 0.00 | 0.00 | 0.00 | 99 | 1018.6 |
| 20260510021005 | 48 | 39 | 6.0 | 13.0 | 0.00 | 0.00 | 0.00 | 99 | 1018.7 |
| 20260510020003 | 48 | 44 | 7.0 | 11.0 | 0.00 | 0.00 | 0.00 | 99 | 1018.6 |
| 20260510015003 | 48 | 48 | 5.0 | 10.0 | 0.00 | 0.00 | 0.00 | 99 | 1018.6 |
| 20260510014005 | 48 | 39 | 5.0 | 9.0 | 0.00 | 0.00 | 0.00 | 99 | 1018.4 |
| 20260510013004 | 48 | 39 | 6.0 | 10.0 | 0.00 | 0.00 | 0.00 | 99 | 1018.5 |
| 20260510012006 | 48 | 42 | 5.0 | 9.0 | 0.00 | 0.00 | 0.00 | 99 | 1018.4 |
| 20260510011005 | 48 | 42 | 6.0 | 8.0 | 0.00 | 0.00 | 0.00 | 99 | 1018.4 |
| 20260510010006 | 48 | 47 | 6.0 | 10.0 | 0.00 | 0.00 | 0.00 | 99 | 1018.6 |
| 20260510005003 | 48 | 55 | 4.0 | 8.0 | 0.00 | 0.00 | 0.00 | 99 | 1018.7 |
| 20260510004003 | 48 | 52 | 4.0 | 7.0 | 0.00 | 0.00 | 0.00 | 99 | 1018.7 |
| 20260510003004 | 49 | 43 | 4.0 | 7.0 | 0.00 | 0.00 | 0.00 | 99 | 1018.9 |
| 20260510002003 | 49 | 44 | 4.0 | 9.0 | 0.00 | 0.00 | 0.00 | 99 | 1019.0 |
| 20260510001004 | 49 | 48 | 5.0 | 10.0 | 0.00 | 0.00 | 0.00 | 99 | 1018.9 |
| 20260510000005 | 49 | 42 | 5.0 | 8.0 | 0.00 | 0.00 | 0.00 | 99 | 1019.0 |
| 20260509235003 | 49 | 44 | 5.0 | 8.0 | 0.00 | 0.00 | 0.00 | 99 | 1019.0 |
| 20260509234006 | 49 | 32 | 5.0 | 9.0 | 0.00 | 0.00 | 0.00 | 99 | 1019.1 |
| 20260509233005 | 49 | 49 | 5.0 | 11.0 | 0.00 | 0.00 | 0.00 | 98 | 1019.0 |
| 20260509232005 | 49 | 37 | 6.0 | 11.0 | 0.00 | 0.00 | 0.00 | 97 | 1019.0 |
| 20260509231005 | 49 | 50 | 4.0 | 8.0 | 0.00 | 0.00 | 0.00 | 96 | 1019.0 |
| 20260509230218 | 49 | 29 | 4.0 | 8.0 | 0.00 | 0.00 | 0.00 | 96 | 1019.2 |
| 20260509225003 | 48 | 49 | 4.0 | 8.0 | 0.00 | 0.00 | 0.00 | 94 | 1019.4 |
| 20260509224005 | 48 | 46 | 3.0 | 5.0 | 0.00 | 0.00 | 0.00 | 93 | 1019.2 |
| 20260509223003 | 48 | 41 | 3.0 | 6.0 | 0.00 | 0.00 | 0.00 | 92 | 1019.3 |
| 20260509222005 | 48 | 51 | 3.0 | 5.0 | 0.00 | 0.00 | 0.00 | 91 | 1019.2 |
| 20260509221006 | 48 | 47 | 3.0 | 5.0 | 0.00 | 0.00 | 0.00 | 90 | 1019.1 |
| 20260509220007 | 48 | 42 | 3.0 | 4.0 | 0.00 | 0.00 | 0.00 | 89 | 1019.0 |
| 20260509215220 | 49 | 45 | 2.0 | 4.0 | 0.00 | 0.00 | 0.00 | 88 | 1019.0 |
| 20260509214003 | 49 | 45 | 3.0 | 4.0 | 0.00 | 0.00 | 0.00 | 86 | 1019.2 |
| 20260509213006 | 49 | 46 | 2.0 | 4.0 | 0.00 | 0.00 | 0.00 | 85 | 1019.2 |
| 20260509212003 | 50 | 42 | 2.0 | 4.0 | 0.00 | 0.00 | 0.00 | 83 | 1019.1 |
| 20260509211006 | 50 | 65 | 3.0 | 5.0 | 0.00 | 0.00 | 0.00 | 83 | 1019.1 |
| 20260509210007 | 50 | 67 | 2.0 | 7.0 | 0.00 | 0.00 | 0.00 | 82 | 1018.9 |
| 20260509205003 | 51 | 53 | 3.0 | 8.0 | 0.00 | 0.00 | 0.00 | 81 | 1018.9 |
| 20260509204003 | 51 | 77 | 4.0 | 8.0 | 0.00 | 0.00 | 0.00 | 80 | 1018.8 |
| 20260509203005 | 51 | 47 | 3.0 | 8.0 | 0.00 | 0.00 | 0.00 | 78 | 1018.8 |
| 20260509202218 | 51 | 52 | 3.0 | 6.0 | 0.00 | 0.00 | 0.00 | 78 | 1018.7 |
| 20260509201003 | 52 | 45 | 3.0 | 5.0 | 0.00 | 0.00 | 0.00 | 78 | 1018.8 |
| 20260509200003 | 52 | 57 | 3.0 | 4.0 | 0.00 | 0.00 | 0.00 | 77 | 1019.0 |
| 20260509195007 | 53 | 86 | 2.0 | 4.0 | 0.00 | 0.00 | 0.00 | 73 | 1019.1 |
| 20260509194005 | 54 | 120 | 1.0 | 4.0 | 0.00 | 0.00 | 0.00 | 70 | 1018.9 |
| 20260509193008 | 55 | 98 | 0.0 | 2.0 | 0.00 | 0.00 | 0.00 | 63 | 1018.8 |
| 20260509192006 | 56 | 31 | 1.0 | 3.0 | 0.00 | 0.00 | 0.00 | 62 | 1018.8 |
| 20260509191006 | 56 | 61 | 2.0 | 4.0 | 0.00 | 0.00 | 0.00 | 62 | 1018.6 |
| 20260509190003 | 57 | 72 | 3.0 | 4.0 | 0.00 | 0.00 | 0.00 | 61 | 1018.6 |
| 20260509185003 | 58 | 96 | 3.0 | 5.0 | 0.00 | 0.00 | 0.00 | 60 | 1018.6 |
| 20260509184218 | 59 | 122 | 2.0 | 6.0 | 0.00 | 0.00 | 0.00 | 58 | 1018.6 |
| 20260509183213 | 58 | 79 | 5.0 | 9.0 | 0.00 | 0.00 | 0.00 | 56 | 1018.5 |
| 20260509182003 | 60 | 63 | 5.0 | 11.0 | 0.00 | 0.00 | 0.00 | 54 | 1018.3 |
| 20260509181005 | 62 | 151 | 3.0 | 10.0 | 0.00 | 0.00 | 0.00 | 52 | 1018.3 |
| 20260509180005 | 63 | 78 | 3.0 | 7.0 | 0.00 | 0.00 | 0.00 | 52 | 1018.4 |
| 20260509175217 | 64 | 69 | 3.0 | 11.0 | 0.00 | 0.00 | 0.00 | 45 | 1018.5 |
| 20260509174005 | 65 | 64 | 3.0 | 8.0 | 0.00 | 0.00 | 0.00 | 43 | 1018.7 |
| 20260509173003 | 66 | 78 | 4.0 | 10.0 | 0.00 | 0.00 | 0.00 | 42 | 1018.7 |
| 20260509172003 | 66 | 78 | 4.0 | 10.0 | 0.00 | 0.00 | 0.00 | 40 | 1018.7 |
| 20260509171008 | 66 | 114 | 3.0 | 8.0 | 0.00 | 0.00 | 0.00 | 40 | 1018.7 |
| 20260509170005 | 67 | 68 | 4.0 | 10.0 | 0.00 | 0.00 | 0.00 | 40 | 1018.7 |
| 20260509165006 | 67 | 89 | 4.0 | 10.0 | 0.00 | 0.00 | 0.00 | 40 | 1018.7 |
| 20260509164005 | 67 | 147 | 4.0 | 9.0 | 0.00 | 0.00 | 0.00 | 40 | 1018.6 |
| 20260509163003 | 66 | 115 | 4.0 | 9.0 | 0.00 | 0.00 | 0.00 | 38 | 1018.7 |
| 20260509162003 | 66 | 105 | 4.0 | 10.0 | 0.00 | 0.00 | 0.00 | 38 | 1018.6 |
| 20260509161005 | 67 | 98 | 6.0 | 9.0 | 0.00 | 0.00 | 0.00 | 37 | 1018.6 |
| 20260509160004 | 66 | 122 | 4.0 | 11.0 | 0.00 | 0.00 | 0.00 | 36 | 1018.5 |
| 20260509155003 | 67 | 127 | 4.0 | 11.0 | 0.00 | 0.00 | 0.00 | 36 | 1018.5 |
| 20260509154006 | 67 | 112 | 4.0 | 10.0 | 0.00 | 0.00 | 0.00 | 36 | 1018.3 |
| 20260509153005 | 67 | 129 | 5.0 | 10.0 | 0.00 | 0.00 | 0.00 | 40 | 1018.3 |
| 20260509152216 | 67 | 82 | 5.0 | 10.0 | 0.00 | 0.00 | 0.00 | 40 | 1018.1 |
| 20260509151003 | 68 | 66 | 4.0 | 10.0 | 0.00 | 0.00 | 0.00 | 39 | 1018.0 |
| 20260509150005 | 67 | 75 | 4.0 | 11.0 | 0.00 | 0.00 | 0.00 | 40 | 1017.9 |
| 20260509145005 | 67 | 100 | 5.0 | 10.0 | 0.00 | 0.00 | 0.00 | 40 | 1018.1 |
| 20260509144003 | 67 | 125 | 5.0 | 11.0 | 0.00 | 0.00 | 0.00 | 38 | 1018.1 |
| 20260509143005 | 67 | 91 | 4.0 | 8.0 | 0.00 | 0.00 | 0.00 | 38 | 1018.3 |
| 20260509142005 | 67 | 130 | 5.0 | 12.0 | 0.00 | 0.00 | 0.00 | 39 | 1018.3 |
| 20260509141003 | 67 | 225 | 6.0 | 13.0 | 0.00 | 0.00 | 0.00 | 36 | 1018.4 |
| 20260509140222 | 68 | 159 | 6.0 | 11.0 | 0.00 | 0.00 | 0.00 | 33 | 1018.3 |
| 20260509135005 | 68 | 132 | 5.0 | 10.0 | 0.00 | 0.00 | 0.00 | 32 | 1018.5 |
| 20260509134003 | 69 | 77 | 5.0 | 13.0 | 0.00 | 0.00 | 0.00 | 32 | 1018.5 |
| 20260509133006 | 68 | 127 | 5.0 | 11.0 | 0.00 | 0.00 | 0.00 | 31 | 1018.6 |
| 20260509132003 | 69 | 157 | 4.0 | 8.0 | 0.00 | 0.00 | 0.00 | 32 | 1018.6 |
| 20260509131004 | 68 | 151 | 5.0 | 10.0 | 0.00 | 0.00 | 0.00 | 34 | 1018.6 |
| 20260509130004 | 68 | 120 | 5.0 | 11.0 | 0.00 | 0.00 | 0.00 | 31 | 1018.5 |
| 20260509125005 | 69 | 93 | 4.0 | 11.0 | 0.00 | 0.00 | 0.00 | 32 | 1018.6 |
| 20260509124003 | 69 | 91 | 4.0 | 9.0 | 0.00 | 0.00 | 0.00 | 33 | 1018.7 |
| 20260509123217 | 69 | 91 | 5.0 | 15.0 | 0.00 | 0.00 | 0.00 | 34 | 1018.7 |
| 20260509122003 | 67 | 64 | 7.0 | 14.0 | 0.00 | 0.00 | 0.00 | 35 | 1018.7 |
| 20260509121003 | 68 | 74 | 4.0 | 11.0 | 0.00 | 0.00 | 0.00 | 33 | 1018.8 |
| 20260509120003 | 67 | 87 | 6.0 | 13.0 | 0.00 | 0.00 | 0.00 | 34 | 1018.8 |